createdAt,value
2024-01-17T00:00:07.564Z,-4.51
2024-01-17T00:02:38.873Z,-4.64
2024-01-17T00:05:12.387Z,-4.72
2024-01-17T00:07:43.368Z,-4.76
2024-01-17T00:10:14.863Z,-4.78
2024-01-17T00:12:45.739Z,-4.80
2024-01-17T00:15:16.746Z,-4.81
2024-01-17T00:17:46.875Z,-4.78
2024-01-17T00:20:18.222Z,-4.73
2024-01-17T00:22:50.503Z,-4.70
2024-01-17T00:25:21.754Z,-4.70
2024-01-17T00:27:52.603Z,-4.69
2024-01-17T00:30:24.368Z,-4.68
2024-01-17T00:32:55.420Z,-4.62
2024-01-17T00:35:26.730Z,-4.54
2024-01-17T00:37:57.673Z,-4.46
2024-01-17T00:40:29.093Z,-4.35
2024-01-17T00:43:00.042Z,-4.28
2024-01-17T00:45:31.166Z,-4.24
2024-01-17T00:48:02.109Z,-4.23
2024-01-17T00:50:31.690Z,-4.20
2024-01-17T00:53:02.564Z,-4.21
2024-01-17T00:55:33.458Z,-4.24
2024-01-17T00:58:04.446Z,-4.22
2024-01-17T01:00:33.684Z,-4.25
2024-01-17T01:03:04.795Z,-4.27
2024-01-17T01:05:35.748Z,-4.28
2024-01-17T01:08:07.319Z,-4.31
2024-01-17T01:10:38.219Z,-4.37
2024-01-17T01:13:09.100Z,-4.42
2024-01-17T01:15:40.024Z,-4.51
2024-01-17T01:18:11.703Z,-4.66
2024-01-17T01:20:43.107Z,-4.75
2024-01-17T01:23:14.093Z,-4.81
2024-01-17T01:25:45.401Z,-4.85
2024-01-17T01:28:16.416Z,-4.87
2024-01-17T01:30:45.685Z,-4.91
2024-01-17T01:33:16.880Z,-4.93
2024-01-17T01:35:47.835Z,-4.95
2024-01-17T01:38:18.927Z,-4.97
2024-01-17T01:40:48.302Z,-4.98
2024-01-17T01:43:22.968Z,-5.04
2024-01-17T01:46:13.637Z,-5.08
2024-01-17T01:48:45.313Z,-5.09
2024-01-17T01:51:16.818Z,-5.10
2024-01-17T01:53:50.760Z,-5.14
2024-01-17T01:56:25.211Z,-5.19
2024-01-17T01:58:58.098Z,-5.23
2024-01-17T02:01:30.908Z,-5.23
2024-01-17T02:04:04.040Z,-5.18
2024-01-17T02:06:37.548Z,-5.09
2024-01-17T02:09:08.549Z,-4.97
2024-01-17T02:11:38.362Z,-4.88
2024-01-17T02:14:07.782Z,-4.89
2024-01-17T02:16:39.125Z,-4.93
2024-01-17T02:19:11.487Z,-4.91
2024-01-17T02:21:42.358Z,-4.90
2024-01-17T02:24:22.242Z,-4.92
2024-01-17T02:26:53.201Z,-4.94
2024-01-17T02:29:24.512Z,-4.95
2024-01-17T02:31:56.863Z,-4.93
2024-01-17T02:34:28.071Z,-4.92
2024-01-17T02:36:59.012Z,-4.90
2024-01-17T02:39:30.068Z,-4.89
2024-01-17T02:41:59.328Z,-4.91
2024-01-17T02:44:30.226Z,-4.97
2024-01-17T02:47:01.230Z,-5.01
2024-01-17T02:49:32.174Z,-5.08
2024-01-17T02:52:03.112Z,-5.13
2024-01-17T02:54:34.084Z,-5.20
2024-01-17T02:57:05.578Z,-5.22
2024-01-17T02:59:38.323Z,-5.23
2024-01-17T03:02:09.918Z,-5.23
2024-01-17T03:04:40.916Z,-5.22
2024-01-17T03:07:12.009Z,-5.18
2024-01-17T03:09:43.004Z,-5.16
2024-01-17T03:12:13.977Z,-5.16
2024-01-17T03:14:44.930Z,-5.20
2024-01-17T03:17:15.941Z,-5.26
2024-01-17T03:19:47.428Z,-5.25
2024-01-17T03:22:18.953Z,-5.21
2024-01-17T03:24:49.844Z,-5.13
2024-01-17T03:27:20.769Z,-5.04
2024-01-17T03:29:51.683Z,-4.91
2024-01-17T03:32:22.658Z,-4.78
2024-01-17T03:34:57.175Z,-4.65
2024-01-17T03:37:28.171Z,-4.54
2024-01-17T03:39:59.504Z,-4.46
2024-01-17T03:42:30.452Z,-4.38
2024-01-17T03:45:01.402Z,-4.30
2024-01-17T03:47:32.428Z,-4.25
2024-01-17T03:50:01.730Z,-4.23
2024-01-17T03:52:32.668Z,-4.28
2024-01-17T03:55:03.560Z,-4.42
2024-01-17T03:57:35.728Z,-4.54
2024-01-17T04:00:10.330Z,-4.62
2024-01-17T04:02:41.335Z,-4.64
2024-01-17T04:05:12.860Z,-4.62
2024-01-17T04:07:43.809Z,-4.60
2024-01-17T04:10:14.810Z,-4.57
2024-01-17T04:12:44.058Z,-4.53
2024-01-17T04:15:15.010Z,-4.50
2024-01-17T04:17:45.999Z,-4.49
2024-01-17T04:20:15.684Z,-4.44
2024-01-17T04:22:46.645Z,-4.41
2024-01-17T04:25:17.687Z,-4.39
2024-01-17T04:27:47.668Z,-4.38
2024-01-17T04:30:18.797Z,-4.37
2024-01-17T04:32:49.939Z,-4.34
2024-01-17T04:35:23.320Z,-4.31
2024-01-17T04:37:55.196Z,-4.25
2024-01-17T04:40:26.095Z,-4.16
2024-01-17T04:42:57.036Z,-4.07
2024-01-17T04:45:31.607Z,-3.97
2024-01-17T04:48:04.302Z,-3.84
2024-01-17T04:50:35.623Z,-3.70
2024-01-17T04:53:06.996Z,-3.59
2024-01-17T04:55:40.874Z,-3.52
2024-01-17T04:58:11.842Z,-3.48
2024-01-17T05:00:46.680Z,-3.45
2024-01-17T05:03:18.531Z,-3.46
2024-01-17T05:05:49.557Z,-3.47
2024-01-17T05:08:20.667Z,-3.47
2024-01-17T05:10:51.621Z,-3.48
2024-01-17T05:13:22.786Z,-3.49
2024-01-17T05:15:53.809Z,-3.51
2024-01-17T05:18:23.226Z,-3.51
2024-01-17T05:20:54.407Z,-3.51
2024-01-17T05:23:25.425Z,-3.51
2024-01-17T05:25:54.676Z,-3.49
2024-01-17T05:28:25.628Z,-3.49
2024-01-17T05:30:54.875Z,-3.49
2024-01-17T05:33:26.044Z,-3.49
2024-01-17T05:35:56.993Z,-3.50
2024-01-17T05:38:28.417Z,-3.53
2024-01-17T05:40:59.394Z,-3.55
2024-01-17T05:43:28.639Z,-3.58
2024-01-17T05:46:00.116Z,-3.61
2024-01-17T05:48:31.208Z,-3.66
2024-01-17T05:51:02.251Z,-3.68
2024-01-17T05:53:31.736Z,-3.66
2024-01-17T05:56:04.669Z,-3.61
2024-01-17T05:58:36.429Z,-3.52
2024-01-17T06:01:07.599Z,-3.42
2024-01-17T06:03:38.613Z,-3.31
2024-01-17T06:06:09.979Z,-3.18
2024-01-17T06:08:42.786Z,-3.06
2024-01-17T06:11:15.440Z,-2.99
2024-01-17T06:13:46.352Z,-2.94
2024-01-17T06:16:17.236Z,-2.89
2024-01-17T06:18:48.235Z,-2.87
2024-01-17T06:21:19.375Z,-2.88
2024-01-17T06:23:50.688Z,-2.88
2024-01-17T06:26:21.595Z,-2.85
2024-01-17T06:28:52.570Z,-2.84
2024-01-17T06:31:26.226Z,-2.83
2024-01-17T06:33:57.791Z,-2.86
2024-01-17T06:36:28.861Z,-2.89
2024-01-17T06:38:59.901Z,-2.91
2024-01-17T06:41:31.540Z,-2.92
2024-01-17T06:44:02.503Z,-2.90
2024-01-17T06:46:31.719Z,-2.89
2024-01-17T06:49:02.821Z,-2.91
2024-01-17T06:51:33.788Z,-2.95
2024-01-17T06:54:04.800Z,-2.97
2024-01-17T06:56:36.398Z,-2.97
2024-01-17T06:59:07.914Z,-2.96
2024-01-17T07:01:39.100Z,-2.95
2024-01-17T07:04:10.040Z,-2.93
2024-01-17T07:06:39.780Z,-2.90
2024-01-17T07:09:12.326Z,-2.83
2024-01-17T07:11:43.365Z,-2.74
2024-01-17T07:14:14.328Z,-2.66
2024-01-17T07:16:43.553Z,-2.57
2024-01-17T07:19:14.571Z,-2.47
2024-01-17T07:21:45.484Z,-2.41
2024-01-17T07:24:15.038Z,-2.35
2024-01-17T07:26:45.986Z,-2.29
2024-01-17T07:29:15.357Z,-2.25
2024-01-17T07:31:46.249Z,-2.23
2024-01-17T07:34:17.247Z,-2.26
2024-01-17T07:36:48.662Z,-2.32
2024-01-17T07:39:20.990Z,-2.37
2024-01-17T07:41:52.132Z,-2.38
2024-01-17T07:44:27.789Z,-2.38
2024-01-17T07:46:58.725Z,-2.36
2024-01-17T07:49:28.064Z,-2.33
2024-01-17T07:51:59.090Z,-2.31
2024-01-17T07:54:28.356Z,-2.30
2024-01-17T07:56:59.966Z,-2.29
2024-01-17T07:59:31.119Z,-2.28
2024-01-17T08:02:03.128Z,-2.26
2024-01-17T08:04:34.104Z,-2.23
2024-01-17T08:07:05.382Z,-2.22
2024-01-17T08:09:36.953Z,-2.17
2024-01-17T08:12:09.840Z,-2.14
2024-01-17T08:14:41.026Z,-2.13
2024-01-17T08:17:12.975Z,-2.13
2024-01-17T08:19:43.996Z,-2.05
2024-01-17T08:22:15.070Z,-1.49
2024-01-17T08:24:44.339Z,-1.32
2024-01-17T08:27:15.307Z,-1.27
2024-01-17T08:29:47.546Z,-1.20
2024-01-17T08:32:18.792Z,-1.06
2024-01-17T08:34:49.749Z,-0.48
2024-01-17T08:37:20.677Z,-0.29
2024-01-17T08:39:49.930Z,-0.31
2024-01-17T08:42:20.823Z,-0.31
2024-01-17T08:44:51.819Z,-0.37
2024-01-17T08:47:22.756Z,-0.41
2024-01-17T08:49:55.329Z,-0.45
2024-01-17T08:52:26.433Z,-0.52
2024-01-17T08:54:57.359Z,-0.59
2024-01-17T08:57:28.245Z,-0.64
2024-01-17T08:59:59.749Z,-0.68
2024-01-17T09:02:30.944Z,-0.71
2024-01-17T09:05:02.037Z,-0.71
2024-01-17T09:07:33.698Z,-0.71
2024-01-17T09:10:05.180Z,-0.72
2024-01-17T09:12:36.075Z,-0.75
2024-01-17T09:15:05.806Z,-0.74
2024-01-17T09:17:37.314Z,-0.72
2024-01-17T09:20:10.648Z,-0.69
2024-01-17T09:22:41.621Z,-0.67
2024-01-17T09:25:12.714Z,-0.62
2024-01-17T09:27:43.707Z,-0.60
2024-01-17T09:30:15.241Z,-0.57
2024-01-17T09:32:49.002Z,-0.57
2024-01-17T09:35:20.485Z,-0.61
2024-01-17T09:37:51.386Z,-0.61
2024-01-17T09:40:24.681Z,-0.62
2024-01-17T09:43:06.174Z,-0.63
2024-01-17T09:45:42.318Z,-0.62
2024-01-17T09:48:15.186Z,-0.58
2024-01-17T09:50:46.629Z,-0.53
2024-01-17T09:53:22.304Z,-0.49
2024-01-17T09:55:55.186Z,-0.48
2024-01-17T09:58:29.604Z,-0.41
2024-01-17T10:01:05.411Z,-0.36
2024-01-17T10:03:38.660Z,-0.31
2024-01-17T10:06:11.144Z,-0.26
2024-01-17T10:08:42.601Z,-0.22
2024-01-17T10:11:13.638Z,-0.15
2024-01-17T10:13:44.506Z,-0.09
2024-01-17T10:16:16.464Z,-0.03
2024-01-17T10:18:47.555Z,0.04
2024-01-17T10:21:19.836Z,0.10
2024-01-17T10:23:51.999Z,0.16
2024-01-17T10:26:25.385Z,0.22
2024-01-17T10:28:56.801Z,0.30
2024-01-17T10:31:27.971Z,0.37
2024-01-17T10:33:59.107Z,0.46
2024-01-17T10:36:30.361Z,0.54
2024-01-17T10:39:06.195Z,0.62
2024-01-17T10:41:50.198Z,0.70
2024-01-17T10:44:23.545Z,0.82
2024-01-17T10:46:55.315Z,0.90
2024-01-17T10:49:27.109Z,1.05
2024-01-17T10:52:03.315Z,1.20
2024-01-17T10:54:51.885Z,1.30
2024-01-17T10:57:24.584Z,1.45
2024-01-17T10:59:56.206Z,1.64
2024-01-17T11:02:28.271Z,1.81
2024-01-17T11:05:05.536Z,1.99
2024-01-17T11:07:38.447Z,2.15
2024-01-17T11:10:11.357Z,2.30
2024-01-17T11:12:44.149Z,2.46
2024-01-17T11:15:16.874Z,2.59
2024-01-17T11:17:48.087Z,2.73
2024-01-17T11:20:20.801Z,2.88
2024-01-17T11:22:52.823Z,3.02
2024-01-17T11:25:30.302Z,3.12
2024-01-17T11:28:22.830Z,3.22
2024-01-17T11:31:12.807Z,3.28
2024-01-17T11:33:45.689Z,3.30
2024-01-17T11:36:44.014Z,3.27
2024-01-17T11:39:16.778Z,3.26
2024-01-17T11:41:48.730Z,3.25
2024-01-17T11:44:21.828Z,3.25
2024-01-17T11:46:55.360Z,3.24
2024-01-17T11:49:43.124Z,3.24
2024-01-17T11:52:30.979Z,3.26
2024-01-17T11:55:04.158Z,3.27
2024-01-17T11:57:40.025Z,3.28
2024-01-17T12:00:14.716Z,3.30
2024-01-17T12:02:46.847Z,3.31
2024-01-17T12:05:17.790Z,3.30
2024-01-17T12:07:51.713Z,3.27
2024-01-17T12:10:23.299Z,3.26
2024-01-17T12:12:58.692Z,3.25
2024-01-17T12:15:30.055Z,3.23
2024-01-17T12:18:02.804Z,3.20
2024-01-17T12:20:33.962Z,3.17
2024-01-17T12:23:08.907Z,3.15
2024-01-17T12:25:42.199Z,3.12
2024-01-17T12:28:18.562Z,3.10
2024-01-17T12:31:03.089Z,3.07
2024-01-17T12:33:36.567Z,3.05
2024-01-17T12:36:11.043Z,3.04
2024-01-17T12:38:42.294Z,3.02
2024-01-17T12:41:13.249Z,3.01
2024-01-17T12:43:44.322Z,2.98
2024-01-17T12:46:16.792Z,2.94
2024-01-17T12:48:58.333Z,2.93
2024-01-17T12:51:31.112Z,2.91
2024-01-17T12:54:06.145Z,2.89
2024-01-17T12:56:39.105Z,2.85
2024-01-17T12:59:10.681Z,2.81
2024-01-17T13:01:45.999Z,2.79
2024-01-17T13:04:17.125Z,2.78
2024-01-17T13:06:49.407Z,2.75
2024-01-17T13:09:23.176Z,2.73
2024-01-17T13:11:56.089Z,2.72
2024-01-17T13:14:28.120Z,2.70
2024-01-17T13:16:59.365Z,2.68
2024-01-17T13:19:32.416Z,2.66
2024-01-17T13:22:03.360Z,2.63
2024-01-17T13:24:34.688Z,2.62
2024-01-17T13:27:06.913Z,2.62
2024-01-17T13:29:38.162Z,2.63
2024-01-17T13:32:09.538Z,2.65
2024-01-17T13:34:42.060Z,2.69
2024-01-17T13:37:14.733Z,2.74
2024-01-17T13:39:46.066Z,2.79
2024-01-17T13:42:17.090Z,2.83
2024-01-17T13:44:49.024Z,2.90
2024-01-17T13:47:20.095Z,2.95
2024-01-17T13:49:51.016Z,3.00
2024-01-17T13:52:22.343Z,3.04
2024-01-17T13:54:53.296Z,3.08
2024-01-17T13:57:24.239Z,3.11
2024-01-17T13:59:55.275Z,3.12
2024-01-17T14:02:26.219Z,3.12
2024-01-17T14:04:59.303Z,3.13
2024-01-17T14:07:30.384Z,3.16
2024-01-17T14:10:01.882Z,3.19
2024-01-17T14:12:33.940Z,3.23
2024-01-17T14:15:05.969Z,3.27
2024-01-17T14:17:37.362Z,3.31
2024-01-17T14:20:18.321Z,3.34
2024-01-17T14:22:51.169Z,3.38
2024-01-17T14:25:22.158Z,3.41
2024-01-17T14:27:53.081Z,3.44
2024-01-17T14:30:24.303Z,3.44
2024-01-17T14:32:55.357Z,3.41
2024-01-17T14:35:26.490Z,3.36
2024-01-17T14:37:58.218Z,3.29
2024-01-17T14:40:29.121Z,3.22
2024-01-17T14:43:00.088Z,3.15
2024-01-17T14:45:31.359Z,3.08
2024-01-17T14:48:02.855Z,3.01
2024-01-17T14:50:34.025Z,2.93
2024-01-17T14:53:07.266Z,2.85
2024-01-17T14:55:39.041Z,2.78
2024-01-17T14:58:10.531Z,2.70
2024-01-17T15:00:41.722Z,2.61
2024-01-17T15:03:12.924Z,2.55
2024-01-17T15:05:44.109Z,2.49
2024-01-17T15:08:15.138Z,2.46
2024-01-17T15:10:46.165Z,2.40
2024-01-17T15:13:17.160Z,2.34
2024-01-17T15:15:48.919Z,2.29
2024-01-17T15:18:20.371Z,2.24
2024-01-17T15:20:51.413Z,2.15
2024-01-17T15:23:22.400Z,1.99
2024-01-17T15:25:54.396Z,1.85
2024-01-17T15:28:25.334Z,1.74
2024-01-17T15:30:57.147Z,1.62
2024-01-17T15:33:28.315Z,1.50
2024-01-17T15:35:59.554Z,1.46
2024-01-17T15:38:31.676Z,1.40
2024-01-17T15:41:06.977Z,1.32
2024-01-17T15:43:38.734Z,1.23
2024-01-17T15:46:09.637Z,1.16
2024-01-17T15:48:40.835Z,1.11
2024-01-17T15:51:11.896Z,1.09
2024-01-17T15:53:45.104Z,1.06
2024-01-17T15:56:16.578Z,1.01
2024-01-17T15:58:48.556Z,0.97
2024-01-17T16:01:20.220Z,0.92
2024-01-17T16:03:51.184Z,0.88
2024-01-17T16:06:22.506Z,0.84
2024-01-17T16:08:53.648Z,0.82
2024-01-17T16:11:24.636Z,0.80
2024-01-17T16:13:55.637Z,0.77
2024-01-17T16:16:26.558Z,0.73
2024-01-17T16:18:57.520Z,0.68
2024-01-17T16:21:28.707Z,0.60
2024-01-17T16:23:59.678Z,0.55
2024-01-17T16:26:30.883Z,0.47
2024-01-17T16:29:01.988Z,0.39
2024-01-17T16:31:32.925Z,0.28
2024-01-17T16:34:04.196Z,0.21
2024-01-17T16:36:35.112Z,0.18
2024-01-17T16:39:06.178Z,0.14
2024-01-17T16:41:37.181Z,0.16
2024-01-17T16:44:09.345Z,0.19
2024-01-17T16:46:40.615Z,0.25
2024-01-17T16:49:11.772Z,0.31
2024-01-17T16:51:43.199Z,0.35
2024-01-17T16:54:14.181Z,0.37
2024-01-17T16:56:45.292Z,0.40
2024-01-17T16:59:19.363Z,0.43
2024-01-17T17:01:51.056Z,0.43
2024-01-17T17:04:22.048Z,0.39
2024-01-17T17:06:53.044Z,1.04
2024-01-17T17:09:24.020Z,1.33
2024-01-17T17:11:54.991Z,1.30
2024-01-17T17:14:26.242Z,1.27
2024-01-17T17:16:57.158Z,1.20
2024-01-17T17:19:28.096Z,1.10
2024-01-17T17:21:59.668Z,1.00
2024-01-17T17:24:30.829Z,0.89
2024-01-17T17:27:01.849Z,0.73
2024-01-17T17:29:32.758Z,0.58
2024-01-17T17:32:04.485Z,0.44
2024-01-17T17:34:36.627Z,0.34
2024-01-17T17:37:07.966Z,0.19
2024-01-17T17:39:40.272Z,0.04
2024-01-17T17:42:11.273Z,-0.04
2024-01-17T17:44:42.440Z,-0.14
2024-01-17T17:47:14.641Z,-0.17
2024-01-17T17:49:46.096Z,-0.19
2024-01-17T17:52:17.368Z,-0.19
2024-01-17T17:54:48.779Z,-0.19
2024-01-17T17:57:19.739Z,-0.19
2024-01-17T17:59:50.807Z,-0.21
2024-01-17T18:02:21.684Z,-0.21
2024-01-17T18:04:51.054Z,-0.22
2024-01-17T18:07:21.975Z,-0.22
2024-01-17T18:09:52.898Z,-0.21
2024-01-17T18:12:24.294Z,-0.18
2024-01-17T18:14:55.380Z,-0.15
2024-01-17T18:17:26.420Z,-0.08
2024-01-17T18:19:58.611Z,-0.03
2024-01-17T18:22:29.700Z,-0.01
2024-01-17T18:25:00.811Z,0.04
2024-01-17T18:27:32.633Z,0.06
2024-01-17T18:30:03.823Z,0.09
2024-01-17T18:32:35.001Z,0.10
2024-01-17T18:35:06.787Z,0.10
2024-01-17T18:37:38.227Z,0.07
2024-01-17T18:40:13.290Z,0.04
2024-01-17T18:42:44.345Z,0.00
2024-01-17T18:45:15.387Z,-0.14
2024-01-17T18:47:47.451Z,-0.28
2024-01-17T18:50:18.537Z,-0.32
2024-01-17T18:52:49.540Z,-0.35
2024-01-17T18:55:22.060Z,-0.38
2024-01-17T18:57:53.071Z,-0.43
2024-01-17T19:00:24.219Z,-0.45
2024-01-17T19:02:55.245Z,-0.46
2024-01-17T19:05:26.259Z,-0.43
2024-01-17T19:07:57.198Z,-0.38
2024-01-17T19:10:28.584Z,-0.34
2024-01-17T19:12:59.474Z,-0.30
2024-01-17T19:15:30.888Z,-0.32
2024-01-17T19:18:03.742Z,-0.33
2024-01-17T19:20:34.852Z,-0.34
2024-01-17T19:23:05.949Z,-0.37
2024-01-17T19:25:37.332Z,-0.39
2024-01-17T19:28:08.768Z,-0.39
2024-01-17T19:30:39.848Z,-0.37
2024-01-17T19:33:11.092Z,-0.37
2024-01-17T19:35:42.126Z,-0.35
2024-01-17T19:38:13.111Z,-0.36
2024-01-17T19:40:44.529Z,-0.38
2024-01-17T19:43:15.594Z,-0.41
2024-01-17T19:45:46.569Z,-0.43
2024-01-17T19:48:21.584Z,-0.44
2024-01-17T19:50:53.952Z,-0.48
2024-01-17T19:53:25.697Z,-0.57
2024-01-17T19:55:56.619Z,-0.59
2024-01-17T19:58:27.511Z,-0.56
2024-01-17T20:00:58.316Z,-0.49
2024-01-17T20:03:29.491Z,-0.48
2024-01-17T20:06:01.780Z,-0.39
2024-01-17T20:08:32.846Z,-0.29
2024-01-17T20:11:06.721Z,-0.22
2024-01-17T20:13:40.029Z,-0.13
2024-01-17T20:16:11.158Z,-0.08
2024-01-17T20:18:42.212Z,-0.04
2024-01-17T20:21:23.323Z,-0.02
2024-01-17T20:23:55.015Z,-0.04
2024-01-17T20:26:26.435Z,-0.09
2024-01-17T20:28:58.549Z,-0.17
2024-01-17T20:31:31.952Z,-0.27
2024-01-17T20:34:06.612Z,-0.35
2024-01-17T20:36:38.016Z,-0.38
2024-01-17T20:39:09.891Z,-0.42
2024-01-17T20:41:40.932Z,-0.43
2024-01-17T20:44:12.073Z,-0.44
2024-01-17T20:46:44.602Z,-0.44
2024-01-17T20:49:15.546Z,-0.47
2024-01-17T20:51:46.874Z,-0.45
2024-01-17T20:54:19.785Z,-0.38
2024-01-17T20:56:51.166Z,-0.29
2024-01-17T20:59:22.369Z,-0.21
2024-01-17T21:01:54.331Z,-0.14
2024-01-17T21:04:25.271Z,-0.14
2024-01-17T21:06:56.686Z,-0.20
2024-01-17T21:09:27.962Z,-0.17
2024-01-17T21:11:59.687Z,-0.15
2024-01-17T21:14:30.733Z,-0.14
2024-01-17T21:17:01.702Z,-0.14
2024-01-17T21:19:32.618Z,-0.14
2024-01-17T21:22:04.778Z,-0.14
2024-01-17T21:24:35.715Z,-0.12
2024-01-17T21:27:07.054Z,-0.11
2024-01-17T21:29:37.986Z,-0.13
2024-01-17T21:32:09.206Z,-0.17
2024-01-17T21:34:41.726Z,-0.15
2024-01-17T21:37:13.392Z,-0.08
2024-01-17T21:39:44.464Z,-0.00
2024-01-17T21:42:16.147Z,0.09
2024-01-17T21:44:47.071Z,0.17
2024-01-17T21:47:17.997Z,0.24
2024-01-17T21:49:48.874Z,0.31
2024-01-17T21:52:19.912Z,0.38
2024-01-17T21:54:50.870Z,0.42
2024-01-17T21:57:22.597Z,0.42
2024-01-17T21:59:54.152Z,0.41
2024-01-17T22:02:25.079Z,0.37
2024-01-17T22:04:56.035Z,0.31
2024-01-17T22:07:27.120Z,0.26
2024-01-17T22:09:58.725Z,0.20
2024-01-17T22:12:29.987Z,0.17
2024-01-17T22:15:01.093Z,0.15
2024-01-17T22:17:32.013Z,0.11
2024-01-17T22:20:02.960Z,0.08
2024-01-17T22:22:33.900Z,0.06
2024-01-17T22:25:05.038Z,0.03
2024-01-17T22:27:35.985Z,-0.02
2024-01-17T22:30:09.975Z,-0.00
2024-01-17T22:32:41.142Z,0.06
2024-01-17T22:35:13.793Z,0.14
2024-01-17T22:37:44.707Z,0.24
2024-01-17T22:40:16.444Z,0.27
2024-01-17T22:42:47.399Z,0.24
2024-01-17T22:45:19.556Z,0.27
2024-01-17T22:47:50.693Z,0.31
2024-01-17T22:50:21.655Z,0.32
2024-01-17T22:53:02.141Z,0.33
2024-01-17T22:55:34.395Z,0.33
2024-01-17T22:58:05.492Z,0.33
2024-01-17T23:00:40.761Z,0.30
2024-01-17T23:03:12.100Z,0.26
2024-01-17T23:05:43.398Z,0.19
2024-01-17T23:08:14.444Z,0.15
2024-01-17T23:10:45.753Z,0.09
2024-01-17T23:13:23.283Z,0.05
2024-01-17T23:15:55.515Z,0.06
2024-01-17T23:18:26.530Z,0.10
2024-01-17T23:20:57.617Z,0.12
2024-01-17T23:23:28.535Z,0.18
2024-01-17T23:25:59.453Z,0.27
2024-01-17T23:28:30.532Z,0.33
2024-01-17T23:31:01.551Z,0.37
2024-01-17T23:33:32.977Z,0.41
2024-01-17T23:36:04.215Z,0.41
2024-01-17T23:38:35.198Z,0.43
2024-01-17T23:41:06.303Z,0.44
2024-01-17T23:43:37.257Z,0.46
2024-01-17T23:46:09.478Z,0.45
2024-01-17T23:48:40.475Z,0.44
2024-01-17T23:51:11.538Z,0.37
2024-01-17T23:53:42.484Z,0.29
2024-01-17T23:56:13.399Z,0.30
2024-01-17T23:58:45.291Z,0.36
